createdAt,value
2022-11-01T00:01:45.000Z,10.80
2022-11-01T00:04:13.810Z,10.80
2022-11-01T00:06:44.964Z,10.90
2022-11-01T00:09:13.328Z,11.00
2022-11-01T00:11:42.466Z,10.90
2022-11-01T00:14:15.416Z,10.90
2022-11-01T00:16:44.588Z,11.10
2022-11-01T00:19:13.131Z,11.10
2022-11-01T00:21:41.623Z,11.00
2022-11-01T00:24:10.253Z,11.00
2022-11-01T00:26:38.539Z,10.90
2022-11-01T00:29:06.817Z,10.80
2022-11-01T00:31:36.661Z,10.80
2022-11-01T00:34:06.771Z,10.90
2022-11-01T00:36:35.873Z,10.70
2022-11-01T00:39:04.335Z,10.70
2022-11-01T00:41:32.615Z,10.60
2022-11-01T00:44:01.086Z,10.60
2022-11-01T00:46:29.248Z,10.60
2022-11-01T00:48:58.801Z,10.60
2022-11-01T00:51:27.769Z,10.50
2022-11-01T00:53:55.928Z,10.40
2022-11-01T00:56:24.337Z,10.40
2022-11-01T00:58:52.653Z,10.40
2022-11-01T01:01:20.930Z,10.50
2022-11-01T01:03:49.204Z,10.50
2022-11-01T01:06:19.019Z,10.60
2022-11-01T01:08:47.202Z,10.50
2022-11-01T01:11:15.412Z,10.60
2022-11-01T01:13:43.626Z,10.60
2022-11-01T01:16:13.841Z,10.60
2022-11-01T01:18:42.230Z,10.60
2022-11-01T01:21:10.559Z,10.50
2022-11-01T01:23:40.078Z,10.50
2022-11-01T01:26:09.472Z,10.60
2022-11-01T01:28:41.955Z,10.60
2022-11-01T01:31:14.589Z,10.60
2022-11-01T01:33:42.966Z,10.60
2022-11-01T01:36:11.388Z,10.70
2022-11-01T01:38:40.979Z,10.60
2022-11-01T01:41:26.679Z,10.60
2022-11-01T01:43:54.897Z,10.70
2022-11-01T01:46:23.298Z,10.70
2022-11-01T01:48:58.038Z,10.60
2022-11-01T01:51:28.814Z,10.50
2022-11-01T01:53:59.972Z,10.50
2022-11-01T01:56:34.205Z,10.60
2022-11-01T01:59:06.663Z,10.70
2022-11-01T02:01:38.789Z,10.60
2022-11-01T02:04:13.061Z,10.60
2022-11-01T02:06:42.054Z,10.60
2022-11-01T02:09:12.917Z,10.70
2022-11-01T02:11:41.131Z,10.60
2022-11-01T02:14:09.613Z,10.70
2022-11-01T02:16:50.095Z,10.70
2022-11-01T02:20:00.011Z,10.70
2022-11-01T02:22:50.171Z,10.80
2022-11-01T02:25:36.300Z,10.90
2022-11-01T02:28:29.122Z,10.90
2022-11-01T02:31:14.986Z,10.90
2022-11-01T02:33:48.178Z,10.90
2022-11-01T02:36:22.094Z,10.90
2022-11-01T02:38:53.798Z,11.00
2022-11-01T02:41:27.623Z,10.90
2022-11-01T02:44:01.330Z,11.00
2022-11-01T02:46:52.899Z,10.80
2022-11-01T02:49:24.977Z,10.70
2022-11-01T02:51:55.103Z,10.70
2022-11-01T02:54:28.819Z,10.60
2022-11-01T02:57:00.218Z,10.70
2022-11-01T02:59:30.841Z,10.80
2022-11-01T03:02:04.934Z,10.70
2022-11-01T03:04:35.714Z,10.70
2022-11-01T03:07:08.650Z,10.70
2022-11-01T03:09:37.882Z,10.70
2022-11-01T03:12:11.806Z,10.70
2022-11-01T03:14:49.925Z,10.80
2022-11-01T03:17:29.310Z,10.70
2022-11-01T03:20:06.203Z,10.70
2022-11-01T03:22:41.223Z,10.60
2022-11-01T03:25:29.223Z,10.60
2022-11-01T03:27:58.773Z,10.60
2022-11-01T03:30:27.813Z,10.50
2022-11-01T03:32:59.125Z,10.40
2022-11-01T03:35:33.667Z,10.50
2022-11-01T03:38:06.919Z,10.40
2022-11-01T03:40:37.006Z,10.50
2022-11-01T03:43:10.848Z,10.50
2022-11-01T03:45:41.189Z,10.50
2022-11-01T03:48:10.447Z,10.60
2022-11-01T03:50:40.889Z,10.60
2022-11-01T03:53:09.050Z,10.60
2022-11-01T03:55:37.274Z,10.60
2022-11-01T03:58:07.452Z,10.70
2022-11-01T04:00:38.358Z,10.70
2022-11-01T04:03:06.949Z,10.80
2022-11-01T04:05:36.719Z,10.80
2022-11-01T04:08:07.829Z,10.70
2022-11-01T04:10:36.051Z,10.60
2022-11-01T04:13:05.930Z,10.70
2022-11-01T04:15:51.954Z,10.60
2022-11-01T04:21:16.319Z,10.70
2022-11-01T04:23:46.991Z,10.70
2022-11-01T04:26:17.547Z,10.70
2022-11-01T04:28:56.815Z,10.80
2022-11-01T04:31:26.706Z,10.90
2022-11-01T04:33:55.025Z,10.90
2022-11-01T04:36:23.334Z,10.90
2022-11-01T04:38:55.579Z,11.00
2022-11-01T04:41:25.225Z,10.90
2022-11-01T04:43:55.620Z,11.00
2022-11-01T04:46:23.859Z,10.90
2022-11-01T04:48:52.037Z,10.90
2022-11-01T04:51:20.218Z,10.90
2022-11-01T04:53:48.385Z,10.90
2022-11-01T04:56:17.927Z,10.90
2022-11-01T04:58:46.830Z,11.10
2022-11-01T05:01:15.953Z,10.90
2022-11-01T05:03:44.483Z,10.90
2022-11-01T05:06:12.667Z,11.00
2022-11-01T05:08:40.823Z,10.90
2022-11-01T05:11:09.025Z,11.00
2022-11-01T05:13:38.605Z,11.00
2022-11-01T05:16:19.758Z,11.00
2022-11-01T05:18:48.740Z,11.10
2022-11-01T05:21:16.945Z,11.00
2022-11-01T05:23:45.125Z,11.10
2022-11-01T05:26:13.330Z,11.10
2022-11-01T05:28:42.894Z,11.20
2022-11-01T05:31:11.072Z,11.20
2022-11-01T05:33:39.268Z,11.20
2022-11-01T05:36:08.196Z,11.20
2022-11-01T05:38:36.428Z,11.20
2022-11-01T05:41:05.153Z,11.10
2022-11-01T05:43:33.391Z,11.10
2022-11-01T05:46:06.155Z,11.10
2022-11-01T05:48:34.494Z,11.10
2022-11-01T05:51:02.705Z,11.20
2022-11-01T05:53:30.897Z,11.30
2022-11-01T05:55:59.683Z,11.20
2022-11-01T05:58:30.763Z,11.20
2022-11-01T06:00:59.868Z,11.20
2022-11-01T06:03:29.422Z,11.20
2022-11-01T06:05:58.153Z,11.30
2022-11-01T06:08:26.941Z,11.30
2022-11-01T06:11:02.570Z,11.20
2022-11-01T06:13:30.837Z,11.20
2022-11-01T06:16:03.102Z,11.20
2022-11-01T06:18:33.694Z,11.30
2022-11-01T06:21:01.871Z,11.40
2022-11-01T06:23:30.061Z,11.30
2022-11-01T06:26:02.729Z,11.40
2022-11-01T06:28:31.195Z,11.40
2022-11-01T06:31:02.825Z,11.50
2022-11-01T06:33:33.089Z,11.50
2022-11-01T06:36:02.256Z,11.50
2022-11-01T06:38:30.885Z,11.50
2022-11-01T06:40:59.046Z,11.60
2022-11-01T06:43:27.553Z,11.60
2022-11-01T06:45:55.861Z,11.60
2022-11-01T06:48:24.052Z,11.50
2022-11-01T06:50:55.810Z,11.40
2022-11-01T06:53:24.597Z,11.30
2022-11-01T06:55:53.205Z,11.30
2022-11-01T06:58:23.281Z,11.40
2022-11-01T07:00:51.513Z,11.40
2022-11-01T07:03:19.822Z,11.30
2022-11-01T07:05:49.492Z,11.40
2022-11-01T07:08:19.362Z,11.40
2022-11-01T07:10:52.064Z,11.40
2022-11-01T07:13:20.280Z,11.40
2022-11-01T07:15:48.535Z,11.40
2022-11-01T07:18:16.802Z,11.50
2022-11-01T07:20:47.967Z,11.50
2022-11-01T07:23:18.820Z,11.50
2022-11-01T07:25:51.862Z,11.50
2022-11-01T07:28:20.417Z,11.60
2022-11-01T07:30:49.477Z,11.70
2022-11-01T07:33:17.951Z,11.70
2022-11-01T07:35:46.679Z,11.70
2022-11-01T07:38:15.634Z,11.80
2022-11-01T07:40:49.427Z,11.90
2022-11-01T07:43:18.742Z,12.00
2022-11-01T07:45:47.022Z,12.10
2022-11-01T07:48:18.162Z,12.20
2022-11-01T07:50:46.855Z,12.20
2022-11-01T07:53:17.975Z,12.20
2022-11-01T07:55:48.479Z,12.40
2022-11-01T07:58:17.910Z,12.40
2022-11-01T08:00:46.968Z,12.40
2022-11-01T08:03:17.565Z,12.50
2022-11-01T08:05:47.012Z,12.50
2022-11-01T08:08:16.307Z,12.50
2022-11-01T08:10:44.622Z,12.60
2022-11-01T08:13:20.071Z,12.60
2022-11-01T08:15:50.853Z,12.60
2022-11-01T08:18:21.512Z,12.50
2022-11-01T08:20:49.804Z,12.70
2022-11-01T08:23:18.284Z,12.80
2022-11-01T08:25:46.598Z,12.90
2022-11-01T08:28:19.283Z,13.10
2022-11-01T08:30:50.017Z,13.20
2022-11-01T08:33:18.370Z,13.20
2022-11-01T08:35:50.476Z,13.30
2022-11-01T08:38:19.269Z,13.20
2022-11-01T08:40:47.978Z,13.30
2022-11-01T08:43:17.753Z,13.30
2022-11-01T08:45:46.084Z,13.40
2022-11-01T08:48:14.739Z,13.40
2022-11-01T08:50:43.024Z,13.50
2022-11-01T08:53:13.379Z,13.50
2022-11-01T08:55:42.053Z,13.60
2022-11-01T08:58:11.035Z,13.70
2022-11-01T09:00:40.678Z,13.80
2022-11-01T09:03:08.927Z,13.80
2022-11-01T09:05:37.370Z,13.80
2022-11-01T09:08:06.316Z,13.80
2022-11-01T09:10:35.066Z,13.90
2022-11-01T09:13:03.630Z,14.00
2022-11-01T09:15:32.779Z,14.10
2022-11-01T09:18:06.998Z,14.30
2022-11-01T09:20:35.255Z,14.40
2022-11-01T09:23:03.820Z,14.50
2022-11-01T09:25:32.486Z,14.50
2022-11-01T09:28:00.729Z,14.50
2022-11-01T09:30:29.902Z,14.60
2022-11-01T09:32:58.097Z,14.80
2022-11-01T09:35:27.657Z,14.90
2022-11-01T09:37:59.417Z,15.00
2022-11-01T09:40:29.013Z,15.10
2022-11-01T09:43:01.681Z,15.10
2022-11-01T09:45:33.805Z,15.10
2022-11-01T09:48:05.065Z,15.20
2022-11-01T09:50:38.519Z,15.30
2022-11-01T09:53:15.749Z,15.30
2022-11-01T09:55:51.077Z,15.40
2022-11-01T09:58:32.175Z,15.50
2022-11-01T10:01:16.522Z,15.60
2022-11-01T10:03:57.951Z,15.70
2022-11-01T10:06:33.115Z,15.70
2022-11-01T10:09:10.528Z,15.70
2022-11-01T10:11:59.355Z,15.70
2022-11-01T10:14:43.866Z,15.90
2022-11-01T10:17:15.596Z,16.00
2022-11-01T10:19:49.258Z,16.00
2022-11-01T10:22:24.462Z,16.00
2022-11-01T10:24:59.120Z,16.10
2022-11-01T10:27:37.194Z,16.20
2022-11-01T10:30:10.969Z,16.10
2022-11-01T10:32:44.383Z,16.10
2022-11-01T10:35:19.842Z,16.20
2022-11-01T10:38:11.351Z,16.10
2022-11-01T10:40:52.982Z,16.30
2022-11-01T10:43:24.405Z,16.20
2022-11-01T10:45:57.660Z,16.40
2022-11-01T10:48:32.713Z,16.30
2022-11-01T10:51:03.639Z,16.40
2022-11-01T10:53:42.386Z,16.40
2022-11-01T10:56:19.954Z,16.40
2022-11-01T10:59:00.559Z,16.50
2022-11-01T11:01:33.505Z,16.50
2022-11-01T11:04:04.809Z,16.50
2022-11-01T11:06:37.034Z,16.50
2022-11-01T11:09:07.368Z,16.60
2022-11-01T11:11:38.389Z,16.80
2022-11-01T11:14:09.518Z,16.90
2022-11-01T11:16:44.517Z,16.90
2022-11-01T11:19:19.585Z,16.90
2022-11-01T11:21:50.878Z,17.00
2022-11-01T11:24:24.018Z,17.30
2022-11-01T11:26:55.548Z,17.50
2022-11-01T11:29:38.795Z,17.50
2022-11-01T11:32:15.695Z,17.30
2022-11-01T11:34:44.238Z,17.40
2022-11-01T11:37:22.165Z,17.40
2022-11-01T11:40:19.658Z,17.30
2022-11-01T11:42:49.748Z,17.20
2022-11-01T11:45:27.333Z,17.20
2022-11-01T11:47:56.938Z,17.40
2022-11-01T11:50:34.042Z,17.30
2022-11-01T11:53:08.586Z,17.30
2022-11-01T11:55:44.345Z,17.30
2022-11-01T11:58:30.424Z,17.20
2022-11-01T12:01:04.511Z,17.30
2022-11-01T12:03:48.551Z,17.30
2022-11-01T12:06:21.357Z,17.30
2022-11-01T12:08:51.625Z,17.20
2022-11-01T12:11:21.526Z,17.20
2022-11-01T12:14:05.099Z,17.20
2022-11-01T12:16:41.927Z,17.30
2022-11-01T12:19:26.257Z,17.20
2022-11-01T12:21:56.097Z,17.20
2022-11-01T12:24:27.698Z,17.30
2022-11-01T12:27:03.686Z,17.30
2022-11-01T12:29:37.211Z,17.20
2022-11-01T12:32:14.485Z,17.20
2022-11-01T12:34:46.095Z,17.10
2022-11-01T12:37:20.081Z,17.20
2022-11-01T12:39:55.582Z,17.30
2022-11-01T12:42:29.918Z,17.20
2022-11-01T12:45:05.450Z,17.20
2022-11-01T12:47:41.890Z,17.30
2022-11-01T12:50:22.547Z,17.30
2022-11-01T12:52:54.506Z,17.40
2022-11-01T12:55:36.583Z,17.30
2022-11-01T12:58:13.055Z,17.40
2022-11-01T13:01:03.693Z,17.30
2022-11-01T13:03:46.045Z,17.40
2022-11-01T13:06:44.886Z,17.40
2022-11-01T13:09:21.523Z,17.40
2022-11-01T13:12:01.321Z,17.30
2022-11-01T13:14:50.064Z,17.20
2022-11-01T13:17:25.287Z,17.20
2022-11-01T13:20:01.067Z,17.20
2022-11-01T13:22:36.718Z,17.10
2022-11-01T13:25:14.586Z,17.20
2022-11-01T13:27:51.482Z,17.20
2022-11-01T13:30:21.898Z,17.30
2022-11-01T13:33:00.596Z,17.50
2022-11-01T13:35:47.141Z,17.70
2022-11-01T13:38:26.167Z,18.00
2022-11-01T13:41:02.677Z,18.30
2022-11-01T13:43:38.765Z,18.20
2022-11-01T13:46:45.079Z,18.00
2022-11-01T13:50:05.312Z,18.00
2022-11-01T13:52:35.313Z,18.20
2022-11-01T13:55:18.088Z,18.60
2022-11-01T13:57:46.817Z,18.80
2022-11-01T14:00:38.528Z,19.00
2022-11-01T14:03:29.499Z,18.90
2022-11-01T14:06:31.081Z,19.00
2022-11-01T14:09:41.272Z,18.80
2022-11-01T14:12:32.999Z,18.60
2022-11-01T14:15:23.342Z,18.80
2022-11-01T14:18:09.089Z,18.60
2022-11-01T14:20:52.503Z,18.70
2022-11-01T14:24:01.752Z,18.70
2022-11-01T14:27:01.877Z,18.70
2022-11-01T14:29:31.034Z,18.60
2022-11-01T14:32:00.621Z,18.60
2022-11-01T14:34:36.958Z,18.60
2022-11-01T14:37:19.153Z,18.70
2022-11-01T14:40:20.269Z,18.50
2022-11-01T14:42:50.935Z,18.70
2022-11-01T14:45:29.465Z,18.50
2022-11-01T14:48:02.400Z,18.50
2022-11-01T14:50:39.573Z,18.20
2022-11-01T14:53:19.302Z,18.20
2022-11-01T14:55:47.675Z,18.00
2022-11-01T14:58:22.143Z,18.00
2022-11-01T15:00:54.666Z,18.00
2022-11-01T15:03:24.001Z,18.00
2022-11-01T15:05:53.809Z,17.70
2022-11-01T15:08:29.191Z,17.60
2022-11-01T15:11:02.288Z,17.60
2022-11-01T15:13:34.257Z,17.50
2022-11-01T15:16:14.798Z,17.50
2022-11-01T15:18:49.725Z,17.40
2022-11-01T15:21:25.478Z,17.40
2022-11-01T15:23:59.300Z,17.30
2022-11-01T15:26:32.247Z,17.30
2022-11-01T15:29:03.488Z,17.10
2022-11-01T15:31:34.277Z,16.90
2022-11-01T15:34:05.409Z,16.80
2022-11-01T15:36:37.028Z,16.70
2022-11-01T15:39:20.227Z,16.60
2022-11-01T15:41:57.860Z,16.50
2022-11-01T15:44:28.869Z,16.20
2022-11-01T15:47:00.841Z,16.10
2022-11-01T15:49:34.109Z,16.00
2022-11-01T15:52:06.747Z,15.90
2022-11-01T15:54:42.397Z,15.80
2022-11-01T15:57:18.097Z,15.60
2022-11-01T15:59:56.332Z,15.60
2022-11-01T16:02:31.227Z,15.50
2022-11-01T16:05:00.886Z,15.40
2022-11-01T16:07:33.230Z,15.30
2022-11-01T16:10:03.649Z,15.20
2022-11-01T16:12:38.542Z,15.10
2022-11-01T16:15:09.871Z,15.10
2022-11-01T16:17:42.273Z,15.10
2022-11-01T16:20:31.636Z,15.00
2022-11-01T16:23:02.332Z,15.10
2022-11-01T16:25:33.176Z,15.00
2022-11-01T16:28:07.757Z,15.00
2022-11-01T16:30:45.234Z,14.90
2022-11-01T16:33:30.656Z,14.90
2022-11-01T16:36:01.321Z,14.80
2022-11-01T16:38:40.959Z,14.80
2022-11-01T16:41:20.259Z,14.70
2022-11-01T16:43:54.570Z,14.70
2022-11-01T16:46:25.290Z,14.60
2022-11-01T16:48:56.617Z,14.50
2022-11-01T16:51:28.459Z,14.40
2022-11-01T16:53:58.851Z,14.30
2022-11-01T16:56:37.864Z,14.20
2022-11-01T16:59:13.179Z,14.20
2022-11-01T17:01:42.095Z,14.10
2022-11-01T17:04:13.117Z,14.00
2022-11-01T17:06:41.506Z,13.90
2022-11-01T17:09:13.952Z,13.90
2022-11-01T17:11:46.418Z,13.80
2022-11-01T17:14:20.481Z,13.70
2022-11-01T17:16:50.114Z,13.50
2022-11-01T17:19:24.813Z,13.40
2022-11-01T17:21:53.905Z,13.40
2022-11-01T17:24:25.418Z,13.20
2022-11-01T17:26:56.233Z,13.20
2022-11-01T17:29:25.965Z,13.00
2022-11-01T17:31:54.203Z,12.90
2022-11-01T17:34:22.674Z,12.80
2022-11-01T17:36:51.938Z,12.70
2022-11-01T17:39:21.234Z,12.60
2022-11-01T17:41:49.568Z,12.60
2022-11-01T17:44:17.850Z,12.50
2022-11-01T17:46:47.824Z,12.50
2022-11-01T17:49:18.472Z,12.60
2022-11-01T17:51:50.441Z,12.60
2022-11-01T17:54:22.013Z,12.60
2022-11-01T17:56:51.159Z,12.70
2022-11-01T17:59:20.258Z,12.60
2022-11-01T18:01:50.340Z,12.60
2022-11-01T18:04:18.713Z,12.60
2022-11-01T18:06:46.986Z,12.50
2022-11-01T18:09:22.835Z,12.50
2022-11-01T18:12:00.462Z,12.50
2022-11-01T18:14:54.422Z,12.50
2022-11-01T18:17:54.127Z,12.50
2022-11-01T18:20:39.197Z,12.40
2022-11-01T18:23:13.955Z,12.50
2022-11-01T18:25:45.909Z,12.40
2022-11-01T18:28:17.478Z,12.40
2022-11-01T18:30:52.561Z,12.30
2022-11-01T18:33:31.795Z,12.10
2022-11-01T18:36:07.608Z,12.10
2022-11-01T18:38:43.489Z,12.10
2022-11-01T18:41:16.711Z,12.00
2022-11-01T18:43:44.948Z,11.90
2022-11-01T18:46:26.219Z,11.80
2022-11-01T18:49:00.790Z,11.70
2022-11-01T18:51:31.758Z,11.70
2022-11-01T18:54:23.110Z,11.60
2022-11-01T18:56:54.872Z,11.60
2022-11-01T18:59:30.212Z,11.60
2022-11-01T19:02:04.079Z,11.50
2022-11-01T19:04:35.741Z,11.50
2022-11-01T19:07:13.727Z,11.40
2022-11-01T19:09:44.603Z,11.30
2022-11-01T19:12:17.441Z,11.20
2022-11-01T19:14:51.129Z,11.20
2022-11-01T19:17:24.648Z,11.20
2022-11-01T19:19:55.946Z,11.10
2022-11-01T19:22:38.055Z,11.10
2022-11-01T19:25:20.908Z,11.00
2022-11-01T19:27:51.949Z,11.00
2022-11-01T19:30:26.630Z,10.90
2022-11-01T19:32:58.015Z,10.90
2022-11-01T19:35:27.863Z,10.90
2022-11-01T19:37:58.243Z,10.80
2022-11-01T19:40:29.867Z,10.70
2022-11-01T19:43:01.639Z,10.60
2022-11-01T19:45:34.553Z,10.60
2022-11-01T19:48:04.470Z,10.60
2022-11-01T19:50:41.496Z,10.60
2022-11-01T19:53:22.147Z,10.60
2022-11-01T19:55:55.593Z,10.60
2022-11-01T19:58:42.015Z,10.50
2022-11-01T20:01:34.969Z,10.40
2022-11-01T20:04:12.219Z,10.40
2022-11-01T20:06:48.570Z,10.30
2022-11-01T20:09:22.827Z,10.30
2022-11-01T20:11:51.211Z,10.10
2022-11-01T20:14:19.864Z,10.00
2022-11-01T20:16:48.553Z,10.00
2022-11-01T20:19:17.866Z,10.10
2022-11-01T20:21:51.626Z,10.00
2022-11-01T20:24:23.189Z,10.10
2022-11-01T20:26:51.694Z,10.00
2022-11-01T20:29:19.958Z,10.00
2022-11-01T20:31:48.643Z,10.00
2022-11-01T20:34:16.969Z,10.00
2022-11-01T20:37:02.254Z,10.00
2022-11-01T20:39:35.182Z,10.00
2022-11-01T20:42:03.802Z,10.00
2022-11-01T20:44:32.486Z,10.00
2022-11-01T20:47:00.802Z,9.90
2022-11-01T20:49:29.084Z,9.60
2022-11-01T20:52:03.811Z,9.60
2022-11-01T20:54:43.500Z,9.50
2022-11-01T20:57:24.724Z,9.60
2022-11-01T20:59:56.170Z,9.50
2022-11-01T21:02:24.707Z,9.50
2022-11-01T21:05:01.389Z,9.50
2022-11-01T21:07:31.857Z,9.40
2022-11-01T21:10:01.528Z,9.50
2022-11-01T21:12:43.623Z,9.40
2022-11-01T21:15:37.211Z,9.40
2022-11-01T21:18:42.156Z,9.40
2022-11-01T21:21:40.073Z,9.40
2022-11-01T21:24:29.578Z,9.40
2022-11-01T21:27:31.623Z,9.40
2022-11-01T21:30:17.026Z,9.40
2022-11-01T21:32:47.170Z,9.40
2022-11-01T21:35:41.193Z,9.50
2022-11-01T21:38:35.412Z,9.40
2022-11-01T21:41:22.538Z,9.40
2022-11-01T21:43:53.051Z,9.40
2022-11-01T21:46:23.809Z,9.30
2022-11-01T21:48:55.435Z,9.30
2022-11-01T21:51:24.265Z,9.30
2022-11-01T21:53:52.842Z,9.20
2022-11-01T21:56:21.162Z,9.20
2022-11-01T21:58:49.409Z,9.20
2022-11-01T22:01:19.124Z,9.20
2022-11-01T22:03:47.445Z,9.10
2022-11-01T22:06:15.676Z,9.10
2022-11-01T22:08:43.924Z,9.10
2022-11-01T22:11:12.281Z,9.10
2022-11-01T22:13:40.543Z,9.20
2022-11-01T22:16:09.494Z,9.10
2022-11-01T22:18:39.152Z,9.10
2022-11-01T22:21:07.697Z,9.10
2022-11-01T22:23:35.940Z,9.10
2022-11-01T22:26:04.222Z,9.00
2022-11-01T22:28:32.578Z,9.10
2022-11-01T22:31:00.856Z,9.20
2022-11-01T22:33:29.191Z,9.20
2022-11-01T22:35:59.160Z,9.30
2022-11-01T22:38:38.809Z,9.40
2022-11-01T22:41:13.026Z,9.40
2022-11-01T22:43:44.174Z,9.40
2022-11-01T22:46:25.564Z,9.50
2022-11-01T22:49:01.695Z,9.50
2022-11-01T22:51:40.188Z,9.60
2022-11-01T22:54:30.666Z,9.60
2022-11-01T22:57:04.112Z,9.60
2022-11-01T22:59:35.881Z,9.70
2022-11-01T23:02:26.769Z,9.70
2022-11-01T23:05:23.773Z,9.70
2022-11-01T23:07:55.518Z,9.60
2022-11-01T23:10:28.174Z,9.70
2022-11-01T23:13:25.572Z,9.70
2022-11-01T23:15:54.883Z,9.70
2022-11-01T23:18:27.709Z,9.60
2022-11-01T23:20:58.142Z,9.60
2022-11-01T23:23:28.190Z,9.60
2022-11-01T23:25:58.632Z,9.60
2022-11-01T23:28:28.063Z,9.70
2022-11-01T23:30:57.791Z,9.70
2022-11-01T23:33:35.641Z,9.70
2022-11-01T23:36:04.307Z,9.60
2022-11-01T23:38:40.701Z,9.60
2022-11-01T23:41:21.081Z,9.50
2022-11-01T23:43:50.032Z,9.40
2022-11-01T23:46:19.642Z,9.40
2022-11-01T23:48:48.504Z,9.40
2022-11-01T23:51:21.104Z,9.20
2022-11-01T23:53:54.473Z,9.20
2022-11-01T23:56:24.121Z,9.20
2022-11-01T23:58:57.623Z,9.20
